sensor_id;sensor_type;location;lat;lon;timestamp;pressure;altitude;pressure_sealevel;temperature;humidity
46464;BME280;32161;48.148;-1.554;2023-04-10T00:02:12;101162.47;;;12.93;75.25
46464;BME280;32161;48.148;-1.554;2023-04-10T00:04:40;101159.13;;;12.91;74.68
46464;BME280;32161;48.148;-1.554;2023-04-10T00:07:08;101163.38;;;12.87;75.08
46464;BME280;32161;48.148;-1.554;2023-04-10T00:09:36;101155.69;;;12.84;75.14
46464;BME280;32161;48.148;-1.554;2023-04-10T00:12:04;101151.75;;;12.80;74.84
46464;BME280;32161;48.148;-1.554;2023-04-10T00:14:32;101154.47;;;12.80;75.14
46464;BME280;32161;48.148;-1.554;2023-04-10T00:17:00;101145.47;;;12.79;75.29
46464;BME280;32161;48.148;-1.554;2023-04-10T00:19:27;101160.19;;;12.78;75.22
46464;BME280;32161;48.148;-1.554;2023-04-10T00:21:56;101149.00;;;12.68;75.55
46464;BME280;32161;48.148;-1.554;2023-04-10T00:24:24;101157.81;;;12.70;75.66
46464;BME280;32161;48.148;-1.554;2023-04-10T00:26:52;101151.16;;;12.66;76.27
46464;BME280;32161;48.148;-1.554;2023-04-10T00:29:19;101157.69;;;12.65;76.13
46464;BME280;32161;48.148;-1.554;2023-04-10T00:31:47;101150.31;;;12.65;76.76
46464;BME280;32161;48.148;-1.554;2023-04-10T00:34:15;101139.41;;;12.65;76.29
46464;BME280;32161;48.148;-1.554;2023-04-10T00:36:44;101142.50;;;12.69;76.51
46464;BME280;32161;48.148;-1.554;2023-04-10T00:39:13;101137.06;;;12.69;76.61
46464;BME280;32161;48.148;-1.554;2023-04-10T00:41:41;101130.28;;;12.71;76.66
46464;BME280;32161;48.148;-1.554;2023-04-10T00:44:08;101123.41;;;12.69;76.94
46464;BME280;32161;48.148;-1.554;2023-04-10T00:46:37;101122.34;;;12.70;77.17
46464;BME280;32161;48.148;-1.554;2023-04-10T00:49:05;101120.81;;;12.74;76.80
46464;BME280;32161;48.148;-1.554;2023-04-10T00:51:35;101114.06;;;12.77;76.94
46464;BME280;32161;48.148;-1.554;2023-04-10T00:54:03;101103.97;;;12.77;76.76
46464;BME280;32161;48.148;-1.554;2023-04-10T00:56:33;101102.31;;;12.76;76.55
46464;BME280;32161;48.148;-1.554;2023-04-10T00:59:01;101096.97;;;12.81;76.61
46464;BME280;32161;48.148;-1.554;2023-04-10T01:01:28;101090.91;;;12.79;76.94
46464;BME280;32161;48.148;-1.554;2023-04-10T01:03:56;101097.91;;;12.87;76.67
46464;BME280;32161;48.148;-1.554;2023-04-10T01:06:36;101095.44;;;12.85;76.21
46464;BME280;32161;48.148;-1.554;2023-04-10T01:09:14;101092.00;;;12.90;76.30
46464;BME280;32161;48.148;-1.554;2023-04-10T01:11:52;101090.59;;;12.99;76.11
46464;BME280;32161;48.148;-1.554;2023-04-10T01:14:33;101086.88;;;12.93;76.23
46464;BME280;32161;48.148;-1.554;2023-04-10T01:17:08;101084.16;;;12.82;76.99
46464;BME280;32161;48.148;-1.554;2023-04-10T01:20:08;101078.00;;;12.75;77.75
46464;BME280;32161;48.148;-1.554;2023-04-10T01:22:48;101081.78;;;12.74;77.85
46464;BME280;32161;48.148;-1.554;2023-04-10T01:25:39;101085.59;;;12.73;77.96
46464;BME280;32161;48.148;-1.554;2023-04-10T01:28:39;101081.19;;;12.71;77.91
46464;BME280;32161;48.148;-1.554;2023-04-10T01:31:12;101066.59;;;12.78;77.39
46464;BME280;32161;48.148;-1.554;2023-04-10T01:33:48;101055.59;;;12.84;76.84
46464;BME280;32161;48.148;-1.554;2023-04-10T01:36:23;101054.50;;;12.85;77.38
46464;BME280;32161;48.148;-1.554;2023-04-10T01:38:54;101047.88;;;12.81;77.00
46464;BME280;32161;48.148;-1.554;2023-04-10T01:41:24;101043.97;;;12.65;77.97
46464;BME280;32161;48.148;-1.554;2023-04-10T01:43:55;101045.72;;;12.60;78.57
46464;BME280;32161;48.148;-1.554;2023-04-10T01:46:23;101040.16;;;12.55;79.07
46464;BME280;32161;48.148;-1.554;2023-04-10T01:48:53;101030.53;;;12.52;79.56
46464;BME280;32161;48.148;-1.554;2023-04-10T01:51:23;101031.38;;;12.53;80.22
46464;BME280;32161;48.148;-1.554;2023-04-10T01:53:51;101023.44;;;12.51;79.94
46464;BME280;32161;48.148;-1.554;2023-04-10T01:56:19;101030.31;;;12.54;80.03
46464;BME280;32161;48.148;-1.554;2023-04-10T01:58:47;101020.72;;;12.51;80.38
46464;BME280;32161;48.148;-1.554;2023-04-10T02:01:19;101017.72;;;12.53;80.75
46464;BME280;32161;48.148;-1.554;2023-04-10T02:03:47;101027.09;;;12.57;80.65
46464;BME280;32161;48.148;-1.554;2023-04-10T02:06:23;101029.72;;;12.63;80.67
46464;BME280;32161;48.148;-1.554;2023-04-10T02:08:58;101033.28;;;12.64;80.99
46464;BME280;32161;48.148;-1.554;2023-04-10T02:11:37;101026.53;;;12.66;81.60
46464;BME280;32161;48.148;-1.554;2023-04-10T02:14:10;101021.06;;;12.66;81.44
46464;BME280;32161;48.148;-1.554;2023-04-10T02:16:43;101023.78;;;12.66;81.27
46464;BME280;32161;48.148;-1.554;2023-04-10T02:19:12;101031.16;;;12.66;81.37
46464;BME280;32161;48.148;-1.554;2023-04-10T02:21:41;101041.34;;;12.70;81.33
46464;BME280;32161;48.148;-1.554;2023-04-10T02:24:09;101035.88;;;12.70;81.33
46464;BME280;32161;48.148;-1.554;2023-04-10T02:26:46;101023.31;;;12.69;81.53
46464;BME280;32161;48.148;-1.554;2023-04-10T02:29:14;101008.97;;;12.74;81.56
46464;BME280;32161;48.148;-1.554;2023-04-10T02:31:43;101016.78;;;12.70;81.29
46464;BME280;32161;48.148;-1.554;2023-04-10T02:34:11;101019.78;;;12.69;81.61
46464;BME280;32161;48.148;-1.554;2023-04-10T02:36:39;101025.22;;;12.69;81.74
46464;BME280;32161;48.148;-1.554;2023-04-10T02:39:07;101044.06;;;12.70;82.21
46464;BME280;32161;48.148;-1.554;2023-04-10T02:41:34;101042.78;;;12.73;81.98
46464;BME280;32161;48.148;-1.554;2023-04-10T02:44:02;101042.41;;;12.69;82.37
46464;BME280;32161;48.148;-1.554;2023-04-10T02:46:31;101033.88;;;12.66;82.18
46464;BME280;32161;48.148;-1.554;2023-04-10T02:49:00;101033.88;;;12.66;82.48
46464;BME280;32161;48.148;-1.554;2023-04-10T02:51:28;101022.97;;;12.66;81.94
46464;BME280;32161;48.148;-1.554;2023-04-10T02:53:56;100994.25;;;12.63;82.39
46464;BME280;32161;48.148;-1.554;2023-04-10T02:56:23;100988.47;;;12.60;83.23
46464;BME280;32161;48.148;-1.554;2023-04-10T02:58:52;101004.25;;;12.58;82.70
46464;BME280;32161;48.148;-1.554;2023-04-10T03:01:19;100998.53;;;12.59;83.28
46464;BME280;32161;48.148;-1.554;2023-04-10T03:03:47;100993.78;;;12.66;83.88
46464;BME280;32161;48.148;-1.554;2023-04-10T03:06:16;100986.44;;;12.67;83.90
46464;BME280;32161;48.148;-1.554;2023-04-10T03:08:44;100990.72;;;12.63;83.89
46464;BME280;32161;48.148;-1.554;2023-04-10T03:11:11;100989.28;;;12.60;84.08
46464;BME280;32161;48.148;-1.554;2023-04-10T03:13:39;100990.59;;;12.58;84.23
46464;BME280;32161;48.148;-1.554;2023-04-10T03:16:07;100996.53;;;12.55;83.80
46464;BME280;32161;48.148;-1.554;2023-04-10T03:18:34;100992.72;;;12.56;84.14
46464;BME280;32161;48.148;-1.554;2023-04-10T03:21:02;100996.28;;;12.56;84.02
46464;BME280;32161;48.148;-1.554;2023-04-10T03:23:31;100989.53;;;12.59;84.17
46464;BME280;32161;48.148;-1.554;2023-04-10T03:25:59;100996.16;;;12.63;84.73
46464;BME280;32161;48.148;-1.554;2023-04-10T03:28:27;100995.09;;;12.64;84.71
46464;BME280;32161;48.148;-1.554;2023-04-10T03:30:55;100996.78;;;12.65;84.19
46464;BME280;32161;48.148;-1.554;2023-04-10T03:33:23;101002.22;;;12.65;84.47
46464;BME280;32161;48.148;-1.554;2023-04-10T03:35:50;101001.38;;;12.64;84.89
46464;BME280;32161;48.148;-1.554;2023-04-10T03:38:18;101012.06;;;12.66;84.88
46464;BME280;32161;48.148;-1.554;2023-04-10T03:40:47;101018.59;;;12.65;85.08
46464;BME280;32161;48.148;-1.554;2023-04-10T03:43:15;101026.53;;;12.66;84.80
46464;BME280;32161;48.148;-1.554;2023-04-10T03:45:42;101022.97;;;12.66;85.08
46464;BME280;32161;48.148;-1.554;2023-04-10T03:48:11;101020.25;;;12.66;85.13
46464;BME280;32161;48.148;-1.554;2023-04-10T03:50:38;101015.25;;;12.63;85.64
46464;BME280;32161;48.148;-1.554;2023-04-10T03:53:06;101008.72;;;12.64;85.60
46464;BME280;32161;48.148;-1.554;2023-04-10T03:55:33;101001.88;;;12.61;85.93
46464;BME280;32161;48.148;-1.554;2023-04-10T03:58:03;100997.00;;;12.63;86.43
46464;BME280;32161;48.148;-1.554;2023-04-10T04:00:31;100993.44;;;12.63;87.11
46464;BME280;32161;48.148;-1.554;2023-04-10T04:02:59;100992.84;;;12.73;87.95
46464;BME280;32161;48.148;-1.554;2023-04-10T04:05:30;101007.19;;;12.68;89.55
46464;BME280;32161;48.148;-1.554;2023-04-10T04:07:57;101004.81;;;12.60;89.86
46464;BME280;32161;48.148;-1.554;2023-04-10T04:10:25;101002.69;;;12.62;90.91
46464;BME280;32161;48.148;-1.554;2023-04-10T04:12:52;101003.06;;;12.65;90.94
46464;BME280;32161;48.148;-1.554;2023-04-10T04:15:22;101012.16;;;12.71;90.98
46464;BME280;32161;48.148;-1.554;2023-04-10T04:17:49;101004.97;;;12.65;91.38
46464;BME280;32161;48.148;-1.554;2023-04-10T04:20:17;101006.81;;;12.64;91.81
46464;BME280;32161;48.148;-1.554;2023-04-10T04:22:45;101014.53;;;12.67;91.85
46464;BME280;32161;48.148;-1.554;2023-04-10T04:25:13;101023.53;;;12.68;91.41
46464;BME280;32161;48.148;-1.554;2023-04-10T04:27:41;101032.22;;;12.65;91.80
46464;BME280;32161;48.148;-1.554;2023-04-10T04:30:10;101020.25;;;12.66;92.29
46464;BME280;32161;48.148;-1.554;2023-04-10T04:32:39;101013.72;;;12.67;93.03
46464;BME280;32161;48.148;-1.554;2023-04-10T04:35:08;100995.81;;;12.71;93.21
46464;BME280;32161;48.148;-1.554;2023-04-10T04:37:35;101001.72;;;12.68;93.74
46464;BME280;32161;48.148;-1.554;2023-04-10T04:40:04;101004.72;;;12.66;93.76
46464;BME280;32161;48.148;-1.554;2023-04-10T04:42:32;101016.53;;;12.72;93.93
46464;BME280;32161;48.148;-1.554;2023-04-10T04:44:59;101019.88;;;12.74;93.90
46464;BME280;32161;48.148;-1.554;2023-04-10T04:47:27;101016.78;;;12.70;94.25
46464;BME280;32161;48.148;-1.554;2023-04-10T04:49:56;101020.25;;;12.66;94.80
46464;BME280;32161;48.148;-1.554;2023-04-10T04:52:23;101009.81;;;12.63;95.35
46464;BME280;32161;48.148;-1.554;2023-04-10T04:54:52;100993.44;;;12.63;95.37
46464;BME280;32161;48.148;-1.554;2023-04-10T04:57:20;100977.69;;;12.65;95.41
46464;BME280;32161;48.148;-1.554;2023-04-10T04:59:47;100981.22;;;12.65;95.64
46464;BME280;32161;48.148;-1.554;2023-04-10T05:02:15;100982.06;;;12.66;95.26
46464;BME280;32161;48.148;-1.554;2023-04-10T05:04:43;100982.41;;;12.69;95.79
46464;BME280;32161;48.148;-1.554;2023-04-10T05:07:12;100988.94;;;12.68;95.59
46464;BME280;32161;48.148;-1.554;2023-04-10T05:09:40;100991.69;;;12.68;95.82
46464;BME280;32161;48.148;-1.554;2023-04-10T05:12:08;100991.41;;;12.70;95.74
46464;BME280;32161;48.148;-1.554;2023-04-10T05:14:36;100986.53;;;12.72;95.75
46464;BME280;32161;48.148;-1.554;2023-04-10T05:17:03;100987.41;;;12.73;95.85
46464;BME280;32161;48.148;-1.554;2023-04-10T05:19:31;100995.34;;;12.74;95.95
46464;BME280;32161;48.148;-1.554;2023-04-10T05:21:59;101012.53;;;12.75;96.25
46464;BME280;32161;48.148;-1.554;2023-04-10T05:24:28;101015.59;;;12.78;95.66
46464;BME280;32161;48.148;-1.554;2023-04-10T05:26:55;101021.53;;;12.75;95.80
46464;BME280;32161;48.148;-1.554;2023-04-10T05:29:23;101036.00;;;12.76;96.11
46464;BME280;32161;48.148;-1.554;2023-04-10T05:31:51;101036.84;;;12.76;96.08
46464;BME280;32161;48.148;-1.554;2023-04-10T05:34:18;101040.97;;;12.79;96.28
46464;BME280;32161;48.148;-1.554;2023-04-10T05:36:46;101039.34;;;12.78;96.17
46464;BME280;32161;48.148;-1.554;2023-04-10T05:39:13;101044.91;;;12.83;96.49
46464;BME280;32161;48.148;-1.554;2023-04-10T05:41:43;101050.69;;;12.98;96.19
46464;BME280;32161;48.148;-1.554;2023-04-10T05:44:11;101042.75;;;12.97;95.89
46464;BME280;32161;48.148;-1.554;2023-04-10T05:46:38;101044.31;;;12.92;96.45
46464;BME280;32161;48.148;-1.554;2023-04-10T05:49:06;101030.56;;;12.99;96.83
46464;BME280;32161;48.148;-1.554;2023-04-10T05:51:33;101031.38;;;13.00;97.03
46464;BME280;32161;48.148;-1.554;2023-04-10T05:54:01;101026.03;;;12.93;97.34
46464;BME280;32161;48.148;-1.554;2023-04-10T05:56:28;101026.63;;;12.83;98.16
46464;BME280;32161;48.148;-1.554;2023-04-10T05:58:57;101029.94;;;12.97;98.84
46464;BME280;32161;48.148;-1.554;2023-04-10T06:01:25;101041.59;;;12.92;99.04
46464;BME280;32161;48.148;-1.554;2023-04-10T06:03:53;101049.16;;;12.90;99.23
46464;BME280;32161;48.148;-1.554;2023-04-10T06:06:20;101040.97;;;13.02;99.01
46464;BME280;32161;48.148;-1.554;2023-04-10T06:08:49;101042.41;;;13.05;98.89
46464;BME280;32161;48.148;-1.554;2023-04-10T06:11:17;101038.25;;;13.02;99.00
46464;BME280;32161;48.148;-1.554;2023-04-10T06:13:44;101042.28;;;13.00;99.50
46464;BME280;32161;48.148;-1.554;2023-04-10T06:16:13;101039.28;;;13.13;99.04
46464;BME280;32161;48.148;-1.554;2023-04-10T06:18:41;101038.81;;;13.16;98.02
46464;BME280;32161;48.148;-1.554;2023-04-10T06:21:09;101038.00;;;13.04;99.55
46464;BME280;32161;48.148;-1.554;2023-04-10T06:23:37;101042.84;;;13.13;99.70
46464;BME280;32161;48.148;-1.554;2023-04-10T06:26:05;101040.56;;;13.22;98.70
46464;BME280;32161;48.148;-1.554;2023-04-10T06:28:32;101051.06;;;13.02;99.81
46464;BME280;32161;48.148;-1.554;2023-04-10T06:31:00;101042.16;;;13.06;100.00
46464;BME280;32161;48.148;-1.554;2023-04-10T06:33:30;101035.84;;;13.06;100.00
46464;BME280;32161;48.148;-1.554;2023-04-10T06:36:01;101036.00;;;13.11;100.00
46464;BME280;32161;48.148;-1.554;2023-04-10T06:38:29;101036.81;;;13.11;100.00
46464;BME280;32161;48.148;-1.554;2023-04-10T06:40:59;101026.34;;;13.20;100.00
46464;BME280;32161;48.148;-1.554;2023-04-10T06:43:26;101031.09;;;13.13;100.00
46464;BME280;32161;48.148;-1.554;2023-04-10T06:45:54;101031.38;;;13.23;100.00
46464;BME280;32161;48.148;-1.554;2023-04-10T06:48:21;101028.38;;;13.25;100.00
46464;BME280;32161;48.148;-1.554;2023-04-10T06:50:50;101037.41;;;13.25;100.00
46464;BME280;32161;48.148;-1.554;2023-04-10T06:53:18;101033.13;;;13.29;100.00
46464;BME280;32161;48.148;-1.554;2023-04-10T06:55:45;101037.38;;;13.37;100.00
46464;BME280;32161;48.148;-1.554;2023-04-10T06:58:13;101036.91;;;13.28;100.00
46464;BME280;32161;48.148;-1.554;2023-04-10T07:00:41;101026.25;;;13.27;100.00
46464;BME280;32161;48.148;-1.554;2023-04-10T07:03:09;101026.69;;;13.35;100.00
46464;BME280;32161;48.148;-1.554;2023-04-10T07:05:36;101025.75;;;13.30;100.00
46464;BME280;32161;48.148;-1.554;2023-04-10T07:08:05;101024.91;;;13.29;100.00
46464;BME280;32161;48.148;-1.554;2023-04-10T07:10:33;101015.53;;;13.37;100.00
46464;BME280;32161;48.148;-1.554;2023-04-10T07:13:01;100997.25;;;13.37;100.00
46464;BME280;32161;48.148;-1.554;2023-04-10T07:15:29;101001.09;;;13.25;100.00
46464;BME280;32161;48.148;-1.554;2023-04-10T07:17:56;101004.75;;;13.30;100.00
46464;BME280;32161;48.148;-1.554;2023-04-10T07:20:24;100999.97;;;13.37;100.00
46464;BME280;32161;48.148;-1.554;2023-04-10T07:22:53;100997.94;;;13.44;100.00
46464;BME280;32161;48.148;-1.554;2023-04-10T07:25:22;100988.28;;;13.54;100.00
46464;BME280;32161;48.148;-1.554;2023-04-10T07:27:49;100985.22;;;13.50;100.00
46464;BME280;32161;48.148;-1.554;2023-04-10T07:30:18;100995.19;;;13.44;100.00
46464;BME280;32161;48.148;-1.554;2023-04-10T07:32:46;100993.41;;;13.50;100.00
46464;BME280;32161;48.148;-1.554;2023-04-10T07:35:14;100989.13;;;13.54;100.00
46464;BME280;32161;48.148;-1.554;2023-04-10T07:37:42;100985.66;;;13.59;100.00
46464;BME280;32161;48.148;-1.554;2023-04-10T07:40:10;100982.97;;;13.47;100.00
46464;BME280;32161;48.148;-1.554;2023-04-10T07:42:39;100983.19;;;13.57;100.00
46464;BME280;32161;48.148;-1.554;2023-04-10T07:45:08;100972.00;;;13.59;100.00
46464;BME280;32161;48.148;-1.554;2023-04-10T07:47:36;100988.28;;;13.54;100.00
46464;BME280;32161;48.148;-1.554;2023-04-10T07:50:06;100992.06;;;13.53;100.00
46464;BME280;32161;48.148;-1.554;2023-04-10T07:52:34;100979.97;;;13.49;100.00
46464;BME280;32161;48.148;-1.554;2023-04-10T07:55:01;100986.28;;;13.78;100.00
46464;BME280;32161;48.148;-1.554;2023-04-10T07:57:29;100988.59;;;13.69;100.00
46464;BME280;32161;48.148;-1.554;2023-04-10T07:59:58;100982.56;;;13.84;100.00
46464;BME280;32161;48.148;-1.554;2023-04-10T08:02:26;100993.91;;;13.92;100.00
46464;BME280;32161;48.148;-1.554;2023-04-10T08:04:53;101005.41;;;13.95;100.00
46464;BME280;32161;48.148;-1.554;2023-04-10T08:07:22;101010.81;;;14.06;100.00
46464;BME280;32161;48.148;-1.554;2023-04-10T08:09:49;101010.25;;;14.04;99.79
46464;BME280;32161;48.148;-1.554;2023-04-10T08:12:17;101010.16;;;13.99;100.00
46464;BME280;32161;48.148;-1.554;2023-04-10T08:14:44;101004.50;;;13.89;100.00
46464;BME280;32161;48.148;-1.554;2023-04-10T08:17:13;101002.88;;;13.88;100.00
46464;BME280;32161;48.148;-1.554;2023-04-10T08:19:41;101003.91;;;13.87;100.00
46464;BME280;32161;48.148;-1.554;2023-04-10T08:22:09;101008.19;;;14.11;100.00
46464;BME280;32161;48.148;-1.554;2023-04-10T08:24:36;101003.47;;;14.07;100.00
46464;BME280;32161;48.148;-1.554;2023-04-10T08:27:04;101003.84;;;13.99;100.00
46464;BME280;32161;48.148;-1.554;2023-04-10T08:29:31;100990.44;;;14.14;100.00
46464;BME280;32161;48.148;-1.554;2023-04-10T08:31:59;100995.34;;;14.29;100.00
46464;BME280;32161;48.148;-1.554;2023-04-10T08:34:28;100992.38;;;14.30;100.00
46464;BME280;32161;48.148;-1.554;2023-04-10T08:36:56;100990.78;;;14.34;100.00
46464;BME280;32161;48.148;-1.554;2023-04-10T08:39:24;101004.88;;;14.26;100.00
46464;BME280;32161;48.148;-1.554;2023-04-10T08:41:52;101003.81;;;14.27;100.00
46464;BME280;32161;48.148;-1.554;2023-04-10T08:44:20;100996.44;;;14.28;100.00
46464;BME280;32161;48.148;-1.554;2023-04-10T08:46:48;101005.44;;;14.28;100.00
46464;BME280;32161;48.148;-1.554;2023-04-10T08:49:23;101008.25;;;14.33;100.00
46464;BME280;32161;48.148;-1.554;2023-04-10T08:51:56;100992.19;;;14.37;100.00
46464;BME280;32161;48.148;-1.554;2023-04-10T08:54:27;100999.16;;;14.28;100.00
46464;BME280;32161;48.148;-1.554;2023-04-10T08:56:56;100997.41;;;14.38;100.00
46464;BME280;32161;48.148;-1.554;2023-04-10T08:59:27;100994.28;;;14.30;100.00
46464;BME280;32161;48.148;-1.554;2023-04-10T09:01:56;100999.16;;;14.45;100.00
46464;BME280;32161;48.148;-1.554;2023-04-10T09:04:24;101000.28;;;14.49;100.00
46464;BME280;32161;48.148;-1.554;2023-04-10T09:06:53;100999.16;;;14.45;100.00
46464;BME280;32161;48.148;-1.554;2023-04-10T09:09:21;101001.00;;;14.56;99.76
46464;BME280;32161;48.148;-1.554;2023-04-10T09:12:01;101008.53;;;14.65;100.00
46464;BME280;32161;48.148;-1.554;2023-04-10T09:14:30;100998.81;;;14.75;98.41
46464;BME280;32161;48.148;-1.554;2023-04-10T09:17:16;101001.16;;;14.66;99.39
46464;BME280;32161;48.148;-1.554;2023-04-10T09:19:45;101011.88;;;14.89;97.87
46464;BME280;32161;48.148;-1.554;2023-04-10T09:22:15;101004.59;;;14.78;99.31
46464;BME280;32161;48.148;-1.554;2023-04-10T09:24:45;101013.53;;;14.90;98.16
46464;BME280;32161;48.148;-1.554;2023-04-10T09:27:28;101013.41;;;14.80;98.91
46464;BME280;32161;48.148;-1.554;2023-04-10T09:29:58;101022.16;;;14.99;98.69
46464;BME280;32161;48.148;-1.554;2023-04-10T09:32:38;100997.53;;;14.99;97.88
46464;BME280;32161;48.148;-1.554;2023-04-10T09:35:07;101011.59;;;15.08;97.08
46464;BME280;32161;48.148;-1.554;2023-04-10T09:37:37;100994.03;;;15.04;97.83
46464;BME280;32161;48.148;-1.554;2023-04-10T09:40:18;100995.22;;;15.13;96.46
46464;BME280;32161;48.148;-1.554;2023-04-10T09:42:46;100996.50;;;15.05;96.40
46464;BME280;32161;48.148;-1.554;2023-04-10T09:45:14;100987.06;;;14.96;96.80
46464;BME280;32161;48.148;-1.554;2023-04-10T09:48:01;100992.78;;;14.95;96.64
46464;BME280;32161;48.148;-1.554;2023-04-10T09:50:34;100990.84;;;15.12;95.99
46464;BME280;32161;48.148;-1.554;2023-04-10T09:53:03;100995.94;;;15.03;96.30
46464;BME280;32161;48.148;-1.554;2023-04-10T09:55:31;100993.75;;;15.05;96.52
46464;BME280;32161;48.148;-1.554;2023-04-10T09:58:00;100988.59;;;15.09;95.92
46464;BME280;32161;48.148;-1.554;2023-04-10T10:00:28;100992.44;;;15.08;96.69
46464;BME280;32161;48.148;-1.554;2023-04-10T10:02:57;101004.38;;;15.02;96.97
46464;BME280;32161;48.148;-1.554;2023-04-10T10:05:27;100983.19;;;15.14;96.29
46464;BME280;32161;48.148;-1.554;2023-04-10T10:07:56;100987.78;;;15.08;95.81
46464;BME280;32161;48.148;-1.554;2023-04-10T10:10:25;100980.97;;;15.11;96.90
46464;BME280;32161;48.148;-1.554;2023-04-10T10:12:57;100978.47;;;15.09;97.60
46464;BME280;32161;48.148;-1.554;2023-04-10T10:15:34;100979.94;;;15.17;96.86
46464;BME280;32161;48.148;-1.554;2023-04-10T10:18:08;100980.06;;;15.27;95.75
46464;BME280;32161;48.148;-1.554;2023-04-10T10:20:43;100991.53;;;15.24;95.28
46464;BME280;32161;48.148;-1.554;2023-04-10T10:23:11;100995.41;;;15.28;95.59
46464;BME280;32161;48.148;-1.554;2023-04-10T10:25:41;100989.56;;;15.20;94.56
46464;BME280;32161;48.148;-1.554;2023-04-10T10:28:12;100982.34;;;15.35;94.15
46464;BME280;32161;48.148;-1.554;2023-04-10T10:30:41;100970.31;;;15.36;93.59
46464;BME280;32161;48.148;-1.554;2023-04-10T10:33:10;100964.19;;;15.29;93.99
46464;BME280;32161;48.148;-1.554;2023-04-10T10:35:39;100957.44;;;15.37;93.62
46464;BME280;32161;48.148;-1.554;2023-04-10T10:38:07;100958.78;;;15.34;94.02
46464;BME280;32161;48.148;-1.554;2023-04-10T10:40:46;100955.47;;;15.32;94.42
46464;BME280;32161;48.148;-1.554;2023-04-10T10:43:23;100950.13;;;15.43;93.29
46464;BME280;32161;48.148;-1.554;2023-04-10T10:45:57;100957.19;;;15.38;93.66
46464;BME280;32161;48.148;-1.554;2023-04-10T10:48:27;100968.72;;;15.41;93.73
46464;BME280;32161;48.148;-1.554;2023-04-10T10:50:56;100964.47;;;15.28;93.71
46464;BME280;32161;48.148;-1.554;2023-04-10T10:53:36;100956.69;;;15.42;94.37
46464;BME280;32161;48.148;-1.554;2023-04-10T10:56:36;100957.75;;;15.41;94.17
46464;BME280;32161;48.148;-1.554;2023-04-10T10:59:04;100954.97;;;15.35;93.94
46464;BME280;32161;48.148;-1.554;2023-04-10T11:01:31;100951.94;;;15.37;94.03
46464;BME280;32161;48.148;-1.554;2023-04-10T11:03:59;100951.13;;;15.36;94.92
46464;BME280;32161;48.148;-1.554;2023-04-10T11:06:50;100951.38;;;15.57;94.01
46464;BME280;32161;48.148;-1.554;2023-04-10T11:09:49;100953.56;;;15.60;94.94
46464;BME280;32161;48.148;-1.554;2023-04-10T11:12:22;100945.44;;;15.65;95.04
46464;BME280;32161;48.148;-1.554;2023-04-10T11:14:58;100940.81;;;15.44;96.33
46464;BME280;32161;48.148;-1.554;2023-04-10T11:17:51;100948.06;;;15.33;98.01
46464;BME280;32161;48.148;-1.554;2023-04-10T11:20:21;100942.88;;;15.31;98.69
46464;BME280;32161;48.148;-1.554;2023-04-10T11:23:09;100934.91;;;15.30;98.61
46464;BME280;32161;48.148;-1.554;2023-04-10T11:25:48;100932.72;;;15.32;98.68
46464;BME280;32161;48.148;-1.554;2023-04-10T11:28:38;100951.09;;;15.31;99.12
46464;BME280;32161;48.148;-1.554;2023-04-10T11:31:20;100950.50;;;15.29;99.34
46464;BME280;32161;48.148;-1.554;2023-04-10T11:34:00;100945.19;;;15.45;98.94
46464;BME280;32161;48.148;-1.554;2023-04-10T11:36:28;100952.38;;;15.51;98.43
46464;BME280;32161;48.148;-1.554;2023-04-10T11:38:58;100952.59;;;15.44;99.14
46464;BME280;32161;48.148;-1.554;2023-04-10T11:41:31;100951.53;;;15.45;98.55
46464;BME280;32161;48.148;-1.554;2023-04-10T11:44:05;100961.03;;;15.37;99.60
46464;BME280;32161;48.148;-1.554;2023-04-10T11:46:36;100958.88;;;15.45;99.57
46464;BME280;32161;48.148;-1.554;2023-04-10T11:49:05;100949.53;;;15.41;100.00
46464;BME280;32161;48.148;-1.554;2023-04-10T11:51:32;100951.88;;;15.54;99.67
46464;BME280;32161;48.148;-1.554;2023-04-10T11:54:08;100933.06;;;15.35;99.87
46464;BME280;32161;48.148;-1.554;2023-04-10T11:56:37;100934.84;;;15.52;99.81
46464;BME280;32161;48.148;-1.554;2023-04-10T11:59:08;100921.16;;;15.79;98.26
46464;BME280;32161;48.148;-1.554;2023-04-10T12:01:36;100909.59;;;16.04;94.67
46464;BME280;32161;48.148;-1.554;2023-04-10T12:04:12;100910.94;;;16.01;95.45
46464;BME280;32161;48.148;-1.554;2023-04-10T12:06:44;100906.38;;;16.12;96.43
46464;BME280;32161;48.148;-1.554;2023-04-10T12:09:16;100904.53;;;16.23;95.11
46464;BME280;32161;48.148;-1.554;2023-04-10T12:11:51;100922.44;;;16.35;92.34
46464;BME280;32161;48.148;-1.554;2023-04-10T12:14:22;100922.22;;;16.42;91.73
46464;BME280;32161;48.148;-1.554;2023-04-10T12:16:50;100918.75;;;16.62;89.20
46464;BME280;32161;48.148;-1.554;2023-04-10T12:19:19;100934.31;;;16.46;90.44
46464;BME280;32161;48.148;-1.554;2023-04-10T12:21:52;100927.41;;;16.44;89.28
46464;BME280;32161;48.148;-1.554;2023-04-10T12:24:42;100917.13;;;16.66;87.74
46464;BME280;32161;48.148;-1.554;2023-04-10T12:27:18;100916.00;;;16.62;86.93
46464;BME280;32161;48.148;-1.554;2023-04-10T12:29:49;100930.66;;;16.35;89.39
46464;BME280;32161;48.148;-1.554;2023-04-10T12:32:17;100929.53;;;16.26;89.80
46464;BME280;32161;48.148;-1.554;2023-04-10T12:34:49;100927.81;;;16.20;90.70
46464;BME280;32161;48.148;-1.554;2023-04-10T12:37:17;100942.69;;;16.29;89.32
46464;BME280;32161;48.148;-1.554;2023-04-10T12:39:45;100951.81;;;16.03;91.54
46464;BME280;32161;48.148;-1.554;2023-04-10T12:42:14;100957.22;;;15.93;92.54
46464;BME280;32161;48.148;-1.554;2023-04-10T12:44:56;100948.88;;;15.82;95.30
46464;BME280;32161;48.148;-1.554;2023-04-10T12:47:24;100954.56;;;16.03;95.61
46464;BME280;32161;48.148;-1.554;2023-04-10T12:50:09;100935.63;;;16.01;91.02
46464;BME280;32161;48.148;-1.554;2023-04-10T12:52:39;100935.06;;;15.99;91.14
46464;BME280;32161;48.148;-1.554;2023-04-10T12:55:13;100934.94;;;16.21;91.28